EDDP

Leipzig Halle Airport

Leipzig, Germany
METAR EDDP 250020Z 18008KT CAVOK 12/09 Q1010 NOSIG
Observed Flight Rules
Apr-25 @ 00:20 UTC (13 minutes ago) Visual Flight Rules
Wind Visibility Clouds
180° at 8 knots 10,000+ meters
  • Clear skies
Temperatures Readings
Current 12°C / 54°F
Dewpoint 9°C / 48°F
Humidity 82%
Altimeter 29.82" Hg
Pressure 1010 hPa
Elevation 149
METAR EDDP 250020Z 18008KT CAVOK 12/09 Q1010 NOSIG
Observed Flight Rules
Apr-25 @ 00:20 UTC
(13 minutes ago)
VFR
Wind Visibility
180° at 8 knots 10,000+ meters
Clouds
  • Clear skies
Temperature Dewpoint
12°C / 54°F 9°C / 48°F
Humidity Altimeter Pressure
82% 29.82" Hg 1010 hPa